sensor_id;sensor_type;location;lat;lon;timestamp;temperature;humidity
29539;DHT22;16482;51.046;4.498;2022-09-09T00:03:50;26.10;46.90
29539;DHT22;16482;51.046;4.498;2022-09-09T00:06:42;26.10;47.00
29539;DHT22;16482;51.046;4.498;2022-09-09T00:11:54;26.10;47.00
29539;DHT22;16482;51.046;4.498;2022-09-09T00:17:33;26.10;46.90
29539;DHT22;16482;51.046;4.498;2022-09-09T00:20:28;26.10;46.80
29539;DHT22;16482;51.046;4.498;2022-09-09T00:23:25;26.10;46.80
29539;DHT22;16482;51.046;4.498;2022-09-09T00:26:04;26.10;46.80
29539;DHT22;16482;51.046;4.498;2022-09-09T00:28:41;26.10;46.80
29539;DHT22;16482;51.046;4.498;2022-09-09T00:31:15;26.00;46.80
29539;DHT22;16482;51.046;4.498;2022-09-09T00:33:43;26.00;46.80
29539;DHT22;16482;51.046;4.498;2022-09-09T00:36:15;26.00;46.80
29539;DHT22;16482;51.046;4.498;2022-09-09T00:38:51;26.00;46.80
29539;DHT22;16482;51.046;4.498;2022-09-09T00:41:36;26.00;46.80
29539;DHT22;16482;51.046;4.498;2022-09-09T00:44:30;26.00;46.80
29539;DHT22;16482;51.046;4.498;2022-09-09T00:50:17;26.00;46.70
29539;DHT22;16482;51.046;4.498;2022-09-09T00:58:30;26.00;46.80
29539;DHT22;16482;51.046;4.498;2022-09-09T01:01:09;26.00;46.80
29539;DHT22;16482;51.046;4.498;2022-09-09T01:03:52;26.00;46.70
29539;DHT22;16482;51.046;4.498;2022-09-09T01:06:37;26.00;46.70
29539;DHT22;16482;51.046;4.498;2022-09-09T01:09:22;26.00;46.70
29539;DHT22;16482;51.046;4.498;2022-09-09T01:12:12;26.00;46.70
29539;DHT22;16482;51.046;4.498;2022-09-09T01:14:48;26.00;46.70
29539;DHT22;16482;51.046;4.498;2022-09-09T01:18:10;26.00;46.70
29539;DHT22;16482;51.046;4.498;2022-09-09T01:20:39;26.00;46.70
29539;DHT22;16482;51.046;4.498;2022-09-09T01:23:38;26.00;46.70
29539;DHT22;16482;51.046;4.498;2022-09-09T01:28:55;25.90;46.70
29539;DHT22;16482;51.046;4.498;2022-09-09T01:31:39;26.00;46.80
29539;DHT22;16482;51.046;4.498;2022-09-09T01:34:13;26.00;46.80
29539;DHT22;16482;51.046;4.498;2022-09-09T01:39:22;26.00;46.80
29539;DHT22;16482;51.046;4.498;2022-09-09T01:41:57;26.00;46.70
29539;DHT22;16482;51.046;4.498;2022-09-09T01:44:26;26.00;46.80
29539;DHT22;16482;51.046;4.498;2022-09-09T01:46:52;26.00;46.80
29539;DHT22;16482;51.046;4.498;2022-09-09T01:49:26;26.00;46.80
29539;DHT22;16482;51.046;4.498;2022-09-09T01:51:55;25.90;46.70
29539;DHT22;16482;51.046;4.498;2022-09-09T01:54:24;26.00;46.80
29539;DHT22;16482;51.046;4.498;2022-09-09T02:00:02;26.00;46.70
29539;DHT22;16482;51.046;4.498;2022-09-09T02:02:48;25.90;46.60
29539;DHT22;16482;51.046;4.498;2022-09-09T02:05:36;26.00;46.70
29539;DHT22;16482;51.046;4.498;2022-09-09T02:08:09;25.90;46.70
29539;DHT22;16482;51.046;4.498;2022-09-09T02:10:59;26.00;46.80
29539;DHT22;16482;51.046;4.498;2022-09-09T02:13:38;25.90;46.80
29539;DHT22;16482;51.046;4.498;2022-09-09T02:16:44;25.90;46.70
29539;DHT22;16482;51.046;4.498;2022-09-09T02:19:39;25.90;46.80
29539;DHT22;16482;51.046;4.498;2022-09-09T02:22:06;25.90;46.80
29539;DHT22;16482;51.046;4.498;2022-09-09T02:24:35;25.90;46.80
29539;DHT22;16482;51.046;4.498;2022-09-09T02:27:04;25.90;46.70
29539;DHT22;16482;51.046;4.498;2022-09-09T02:29:41;25.90;46.70
29539;DHT22;16482;51.046;4.498;2022-09-09T02:32:17;25.90;46.70
29539;DHT22;16482;51.046;4.498;2022-09-09T02:34:53;25.90;46.80
29539;DHT22;16482;51.046;4.498;2022-09-09T02:37:24;25.90;46.80
29539;DHT22;16482;51.046;4.498;2022-09-09T02:39:54;25.90;46.80
29539;DHT22;16482;51.046;4.498;2022-09-09T02:42:21;25.90;46.80
29539;DHT22;16482;51.046;4.498;2022-09-09T02:44:47;25.90;46.80
29539;DHT22;16482;51.046;4.498;2022-09-09T02:47:32;25.90;46.80
29539;DHT22;16482;51.046;4.498;2022-09-09T02:50:28;25.90;46.80
29539;DHT22;16482;51.046;4.498;2022-09-09T02:53:19;26.00;46.80
29539;DHT22;16482;51.046;4.498;2022-09-09T02:55:48;25.90;46.70
29539;DHT22;16482;51.046;4.498;2022-09-09T02:58:18;25.90;46.80
29539;DHT22;16482;51.046;4.498;2022-09-09T03:00:47;25.90;47.10
29539;DHT22;16482;51.046;4.498;2022-09-09T03:03:13;25.90;46.80
29539;DHT22;16482;51.046;4.498;2022-09-09T03:05:41;25.90;46.80
29539;DHT22;16482;51.046;4.498;2022-09-09T03:08:08;25.90;46.80
29539;DHT22;16482;51.046;4.498;2022-09-09T03:10:34;25.90;46.90
29539;DHT22;16482;51.046;4.498;2022-09-09T03:13:01;25.90;46.80
29539;DHT22;16482;51.046;4.498;2022-09-09T03:15:31;25.90;46.80
29539;DHT22;16482;51.046;4.498;2022-09-09T03:17:57;25.90;46.90
29539;DHT22;16482;51.046;4.498;2022-09-09T03:20:28;25.90;46.90
29539;DHT22;16482;51.046;4.498;2022-09-09T03:22:54;25.90;46.90
29539;DHT22;16482;51.046;4.498;2022-09-09T03:25:21;25.90;46.90
29539;DHT22;16482;51.046;4.498;2022-09-09T03:27:52;25.90;47.00
29539;DHT22;16482;51.046;4.498;2022-09-09T03:30:21;25.90;47.00
29539;DHT22;16482;51.046;4.498;2022-09-09T03:32:47;25.90;47.00
29539;DHT22;16482;51.046;4.498;2022-09-09T03:35:14;25.90;47.00
29539;DHT22;16482;51.046;4.498;2022-09-09T03:37:43;25.90;47.00
29539;DHT22;16482;51.046;4.498;2022-09-09T03:40:16;25.80;47.00
29539;DHT22;16482;51.046;4.498;2022-09-09T03:42:44;25.80;47.10
29539;DHT22;16482;51.046;4.498;2022-09-09T03:45:13;25.90;47.20
29539;DHT22;16482;51.046;4.498;2022-09-09T03:47:46;25.90;47.20
29539;DHT22;16482;51.046;4.498;2022-09-09T03:50:15;25.80;47.20
29539;DHT22;16482;51.046;4.498;2022-09-09T03:52:44;25.80;47.20
29539;DHT22;16482;51.046;4.498;2022-09-09T03:55:17;25.90;47.30
29539;DHT22;16482;51.046;4.498;2022-09-09T03:57:43;25.90;47.30
29539;DHT22;16482;51.046;4.498;2022-09-09T04:00:11;25.90;47.30
29539;DHT22;16482;51.046;4.498;2022-09-09T04:02:45;25.90;47.90
29539;DHT22;16482;51.046;4.498;2022-09-09T04:05:13;25.90;47.30
29539;DHT22;16482;51.046;4.498;2022-09-09T04:07:40;25.80;47.40
29539;DHT22;16482;51.046;4.498;2022-09-09T04:10:15;25.90;47.40
29539;DHT22;16482;51.046;4.498;2022-09-09T04:12:44;25.90;47.40
29539;DHT22;16482;51.046;4.498;2022-09-09T04:15:10;25.80;47.40
29539;DHT22;16482;51.046;4.498;2022-09-09T04:17:45;25.80;47.40
29539;DHT22;16482;51.046;4.498;2022-09-09T04:20:13;25.90;47.50
29539;DHT22;16482;51.046;4.498;2022-09-09T04:22:41;25.90;47.50
29539;DHT22;16482;51.046;4.498;2022-09-09T04:25:15;25.80;47.40
29539;DHT22;16482;51.046;4.498;2022-09-09T04:27:54;25.90;47.50
29539;DHT22;16482;51.046;4.498;2022-09-09T04:30:20;25.80;47.50
29539;DHT22;16482;51.046;4.498;2022-09-09T04:32:46;25.80;47.50
29539;DHT22;16482;51.046;4.498;2022-09-09T04:35:12;25.80;47.50
29539;DHT22;16482;51.046;4.498;2022-09-09T04:37:46;25.80;47.40
29539;DHT22;16482;51.046;4.498;2022-09-09T04:40:14;25.80;47.40
29539;DHT22;16482;51.046;4.498;2022-09-09T04:42:43;25.90;47.50
29539;DHT22;16482;51.046;4.498;2022-09-09T04:45:17;25.90;47.50
29539;DHT22;16482;51.046;4.498;2022-09-09T04:47:44;25.80;47.40
29539;DHT22;16482;51.046;4.498;2022-09-09T04:50:19;25.80;47.50
29539;DHT22;16482;51.046;4.498;2022-09-09T04:52:45;25.80;47.40
29539;DHT22;16482;51.046;4.498;2022-09-09T04:55:11;25.80;47.50
29539;DHT22;16482;51.046;4.498;2022-09-09T04:57:47;25.80;47.40
29539;DHT22;16482;51.046;4.498;2022-09-09T05:00:14;25.90;47.50
29539;DHT22;16482;51.046;4.498;2022-09-09T05:02:40;25.80;47.50
29539;DHT22;16482;51.046;4.498;2022-09-09T05:05:08;25.80;47.40
29539;DHT22;16482;51.046;4.498;2022-09-09T05:07:34;25.80;47.50
29539;DHT22;16482;51.046;4.498;2022-09-09T05:09:59;25.80;47.50
29539;DHT22;16482;51.046;4.498;2022-09-09T05:12:25;25.80;47.50
29539;DHT22;16482;51.046;4.498;2022-09-09T05:14:54;25.80;47.50
29539;DHT22;16482;51.046;4.498;2022-09-09T05:17:19;25.80;47.50
29539;DHT22;16482;51.046;4.498;2022-09-09T05:19:45;25.80;47.50
29539;DHT22;16482;51.046;4.498;2022-09-09T05:22:11;25.80;47.50
29539;DHT22;16482;51.046;4.498;2022-09-09T05:24:38;25.80;47.50
29539;DHT22;16482;51.046;4.498;2022-09-09T05:27:04;25.80;47.50
29539;DHT22;16482;51.046;4.498;2022-09-09T05:29:32;25.80;47.50
29539;DHT22;16482;51.046;4.498;2022-09-09T05:32:01;25.80;48.10
29539;DHT22;16482;51.046;4.498;2022-09-09T05:34:30;25.80;47.60
29539;DHT22;16482;51.046;4.498;2022-09-09T05:36:55;25.80;47.60
29539;DHT22;16482;51.046;4.498;2022-09-09T05:39:21;25.80;47.60
29539;DHT22;16482;51.046;4.498;2022-09-09T05:41:55;25.80;47.60
29539;DHT22;16482;51.046;4.498;2022-09-09T05:44:21;25.80;47.60
29539;DHT22;16482;51.046;4.498;2022-09-09T05:46:52;25.80;47.60
29539;DHT22;16482;51.046;4.498;2022-09-09T05:49:27;25.80;47.60
29539;DHT22;16482;51.046;4.498;2022-09-09T05:51:53;25.80;47.60
29539;DHT22;16482;51.046;4.498;2022-09-09T05:54:26;25.80;47.60
29539;DHT22;16482;51.046;4.498;2022-09-09T05:56:55;25.80;47.60
29539;DHT22;16482;51.046;4.498;2022-09-09T05:59:24;25.80;47.50
29539;DHT22;16482;51.046;4.498;2022-09-09T06:01:57;25.80;47.60
29539;DHT22;16482;51.046;4.498;2022-09-09T06:04:23;25.80;47.70
29539;DHT22;16482;51.046;4.498;2022-09-09T06:06:50;25.80;47.70
29539;DHT22;16482;51.046;4.498;2022-09-09T06:09:25;25.80;47.70
29539;DHT22;16482;51.046;4.498;2022-09-09T06:11:51;25.80;47.70
29539;DHT22;16482;51.046;4.498;2022-09-09T06:14:20;25.80;47.70
29539;DHT22;16482;51.046;4.498;2022-09-09T06:16:54;25.80;47.70
29539;DHT22;16482;51.046;4.498;2022-09-09T06:19:24;25.80;47.60
29539;DHT22;16482;51.046;4.498;2022-09-09T06:21:51;25.80;47.60
29539;DHT22;16482;51.046;4.498;2022-09-09T06:24:25;25.80;47.70
29539;DHT22;16482;51.046;4.498;2022-09-09T06:26:58;25.80;47.80
29539;DHT22;16482;51.046;4.498;2022-09-09T06:29:24;25.80;47.80
29539;DHT22;16482;51.046;4.498;2022-09-09T06:31:53;25.70;47.80
29539;DHT22;16482;51.046;4.498;2022-09-09T06:34:19;25.80;47.80
29539;DHT22;16482;51.046;4.498;2022-09-09T06:36:47;25.80;48.40
29539;DHT22;16482;51.046;4.498;2022-09-09T06:39:13;25.80;47.80
29539;DHT22;16482;51.046;4.498;2022-09-09T06:41:41;25.80;47.80
29539;DHT22;16482;51.046;4.498;2022-09-09T06:44:07;25.80;47.70
29539;DHT22;16482;51.046;4.498;2022-09-09T06:46:34;25.80;47.70
29539;DHT22;16482;51.046;4.498;2022-09-09T06:49:01;25.80;47.60
29539;DHT22;16482;51.046;4.498;2022-09-09T06:51:30;25.80;47.50
29539;DHT22;16482;51.046;4.498;2022-09-09T06:53:59;25.80;47.50
29539;DHT22;16482;51.046;4.498;2022-09-09T06:56:36;25.80;47.60
29539;DHT22;16482;51.046;4.498;2022-09-09T06:59:04;25.80;47.60
29539;DHT22;16482;51.046;4.498;2022-09-09T07:01:33;25.80;47.70
29539;DHT22;16482;51.046;4.498;2022-09-09T07:03:59;25.80;47.70
29539;DHT22;16482;51.046;4.498;2022-09-09T07:06:28;25.80;47.80
29539;DHT22;16482;51.046;4.498;2022-09-09T07:08:56;25.80;47.70
29539;DHT22;16482;51.046;4.498;2022-09-09T07:11:27;25.80;47.70
29539;DHT22;16482;51.046;4.498;2022-09-09T07:13:57;25.80;47.70
29539;DHT22;16482;51.046;4.498;2022-09-09T07:16:24;25.80;47.90
29539;DHT22;16482;51.046;4.498;2022-09-09T07:18:52;25.80;47.80
29539;DHT22;16482;51.046;4.498;2022-09-09T07:21:18;25.80;47.80
29539;DHT22;16482;51.046;4.498;2022-09-09T07:23:46;25.80;47.90
29539;DHT22;16482;51.046;4.498;2022-09-09T07:26:15;25.80;48.00
29539;DHT22;16482;51.046;4.498;2022-09-09T07:28:41;25.80;48.00
29539;DHT22;16482;51.046;4.498;2022-09-09T07:31:13;25.80;48.00
29539;DHT22;16482;51.046;4.498;2022-09-09T07:33:43;25.80;48.00
29539;DHT22;16482;51.046;4.498;2022-09-09T07:36:13;25.80;48.00
29539;DHT22;16482;51.046;4.498;2022-09-09T07:38:47;25.80;48.10
29539;DHT22;16482;51.046;4.498;2022-09-09T07:41:16;25.80;48.40
29539;DHT22;16482;51.046;4.498;2022-09-09T07:43:44;25.80;48.10
29539;DHT22;16482;51.046;4.498;2022-09-09T07:46:11;25.80;48.10
29539;DHT22;16482;51.046;4.498;2022-09-09T07:48:38;25.80;48.00
29539;DHT22;16482;51.046;4.498;2022-09-09T07:53:38;25.80;48.00
29539;DHT22;16482;51.046;4.498;2022-09-09T07:56:15;25.80;47.90
29539;DHT22;16482;51.046;4.498;2022-09-09T07:58:44;25.80;47.90
29539;DHT22;16482;51.046;4.498;2022-09-09T08:01:16;25.80;47.90
29539;DHT22;16482;51.046;4.498;2022-09-09T08:03:46;25.80;48.00
29539;DHT22;16482;51.046;4.498;2022-09-09T08:06:13;25.80;47.80
29539;DHT22;16482;51.046;4.498;2022-09-09T08:08:40;25.80;47.80
29539;DHT22;16482;51.046;4.498;2022-09-09T08:11:14;25.80;47.90
29539;DHT22;16482;51.046;4.498;2022-09-09T08:13:41;25.80;47.90
29539;DHT22;16482;51.046;4.498;2022-09-09T08:16:16;25.80;47.80
29539;DHT22;16482;51.046;4.498;2022-09-09T08:18:42;25.80;47.70
29539;DHT22;16482;51.046;4.498;2022-09-09T08:21:13;25.80;47.70
29539;DHT22;16482;51.046;4.498;2022-09-09T08:23:40;25.80;47.80
29539;DHT22;16482;51.046;4.498;2022-09-09T08:26:15;25.80;47.70
29539;DHT22;16482;51.046;4.498;2022-09-09T08:28:42;25.80;47.70
29539;DHT22;16482;51.046;4.498;2022-09-09T08:31:14;25.90;47.70
29539;DHT22;16482;51.046;4.498;2022-09-09T08:33:41;25.80;47.60
29539;DHT22;16482;51.046;4.498;2022-09-09T08:36:13;25.80;47.60
29539;DHT22;16482;51.046;4.498;2022-09-09T08:38:41;25.80;47.60
29539;DHT22;16482;51.046;4.498;2022-09-09T08:43:46;25.90;47.70
29539;DHT22;16482;51.046;4.498;2022-09-09T08:46:24;25.80;47.50
29539;DHT22;16482;51.046;4.498;2022-09-09T08:49:30;25.90;47.60
29539;DHT22;16482;51.046;4.498;2022-09-09T08:57:49;25.80;47.60
29539;DHT22;16482;51.046;4.498;2022-09-09T09:00:18;25.80;47.70
29539;DHT22;16482;51.046;4.498;2022-09-09T09:03:03;25.90;47.70
29539;DHT22;16482;51.046;4.498;2022-09-09T09:05:37;25.80;47.70
29539;DHT22;16482;51.046;4.498;2022-09-09T09:10:48;25.80;47.80
29539;DHT22;16482;51.046;4.498;2022-09-09T09:13:20;25.80;47.80
29539;DHT22;16482;51.046;4.498;2022-09-09T09:15:52;25.80;47.80
29539;DHT22;16482;51.046;4.498;2022-09-09T09:18:19;25.80;47.90
29539;DHT22;16482;51.046;4.498;2022-09-09T09:20:54;25.80;48.00
29539;DHT22;16482;51.046;4.498;2022-09-09T09:23:25;25.80;48.00
29539;DHT22;16482;51.046;4.498;2022-09-09T09:26:07;25.80;48.00
29539;DHT22;16482;51.046;4.498;2022-09-09T09:28:36;25.80;48.00
29539;DHT22;16482;51.046;4.498;2022-09-09T09:31:08;25.80;48.70
29539;DHT22;16482;51.046;4.498;2022-09-09T09:33:49;25.80;48.00
29539;DHT22;16482;51.046;4.498;2022-09-09T09:36:16;25.80;48.00
29539;DHT22;16482;51.046;4.498;2022-09-09T09:38:54;25.80;48.00
29539;DHT22;16482;51.046;4.498;2022-09-09T09:41:42;25.90;48.10
29539;DHT22;16482;51.046;4.498;2022-09-09T09:44:28;25.80;48.00
29539;DHT22;16482;51.046;4.498;2022-09-09T09:47:06;25.80;48.00
29539;DHT22;16482;51.046;4.498;2022-09-09T09:49:33;25.80;48.10
29539;DHT22;16482;51.046;4.498;2022-09-09T09:52:04;25.80;48.10
29539;DHT22;16482;51.046;4.498;2022-09-09T09:54:38;25.80;48.10
29539;DHT22;16482;51.046;4.498;2022-09-09T09:57:15;25.80;48.00
29539;DHT22;16482;51.046;4.498;2022-09-09T09:59:42;25.80;48.00
29539;DHT22;16482;51.046;4.498;2022-09-09T10:02:21;25.80;48.00
29539;DHT22;16482;51.046;4.498;2022-09-09T10:05:15;25.80;48.00
29539;DHT22;16482;51.046;4.498;2022-09-09T10:07:44;25.80;47.90
29539;DHT22;16482;51.046;4.498;2022-09-09T10:10:23;25.80;48.00
29539;DHT22;16482;51.046;4.498;2022-09-09T10:12:59;25.80;48.00
29539;DHT22;16482;51.046;4.498;2022-09-09T10:16:00;25.80;48.10
29539;DHT22;16482;51.046;4.498;2022-09-09T10:18:57;25.80;48.10
29539;DHT22;16482;51.046;4.498;2022-09-09T10:21:42;25.80;48.10
29539;DHT22;16482;51.046;4.498;2022-09-09T10:29:59;25.80;48.00
29539;DHT22;16482;51.046;4.498;2022-09-09T10:32:31;25.80;48.00
29539;DHT22;16482;51.046;4.498;2022-09-09T10:40:37;25.80;48.10
29539;DHT22;16482;51.046;4.498;2022-09-09T10:55:17;25.80;48.10
29539;DHT22;16482;51.046;4.498;2022-09-09T10:57:48;25.80;48.20
29539;DHT22;16482;51.046;4.498;2022-09-09T11:00:22;25.80;48.10
29539;DHT22;16482;51.046;4.498;2022-09-09T11:03:01;25.80;48.10
29539;DHT22;16482;51.046;4.498;2022-09-09T11:05:29;25.80;48.10
29539;DHT22;16482;51.046;4.498;2022-09-09T11:08:04;25.80;48.00
29539;DHT22;16482;51.046;4.498;2022-09-09T11:13:02;25.80;48.00
29539;DHT22;16482;51.046;4.498;2022-09-09T11:15:35;25.80;48.00
29539;DHT22;16482;51.046;4.498;2022-09-09T11:18:02;25.80;48.00
29539;DHT22;16482;51.046;4.498;2022-09-09T11:20:30;25.80;48.10
29539;DHT22;16482;51.046;4.498;2022-09-09T11:23:23;25.80;48.20
29539;DHT22;16482;51.046;4.498;2022-09-09T11:26:04;25.80;48.00
29539;DHT22;16482;51.046;4.498;2022-09-09T11:34:51;25.80;47.90
29539;DHT22;16482;51.046;4.498;2022-09-09T11:37:29;25.90;47.90
29539;DHT22;16482;51.046;4.498;2022-09-09T11:40:26;25.80;47.90
29539;DHT22;16482;51.046;4.498;2022-09-09T11:43:03;25.90;48.50
29539;DHT22;16482;51.046;4.498;2022-09-09T11:45:32;25.90;47.90
29539;DHT22;16482;51.046;4.498;2022-09-09T11:48:02;25.90;47.80
29539;DHT22;16482;51.046;4.498;2022-09-09T11:50:35;25.90;47.90
29539;DHT22;16482;51.046;4.498;2022-09-09T11:53:21;25.90;47.80
29539;DHT22;16482;51.046;4.498;2022-09-09T11:56:10;26.00;47.80
29539;DHT22;16482;51.046;4.498;2022-09-09T11:58:38;25.90;47.70
29539;DHT22;16482;51.046;4.498;2022-09-09T12:01:39;25.90;47.70
29539;DHT22;16482;51.046;4.498;2022-09-09T12:04:38;25.90;47.60
29539;DHT22;16482;51.046;4.498;2022-09-09T12:09:58;25.90;47.80
29539;DHT22;16482;51.046;4.498;2022-09-09T12:12:39;25.90;47.70
29539;DHT22;16482;51.046;4.498;2022-09-09T12:17:57;25.90;47.90
29539;DHT22;16482;51.046;4.498;2022-09-09T12:31:39;26.00;47.80
29539;DHT22;16482;51.046;4.498;2022-09-09T12:34:31;26.00;47.80
29539;DHT22;16482;51.046;4.498;2022-09-09T12:37:04;26.00;47.80
29539;DHT22;16482;51.046;4.498;2022-09-09T12:39:33;26.00;47.80
29539;DHT22;16482;51.046;4.498;2022-09-09T12:42:03;26.00;47.80
29539;DHT22;16482;51.046;4.498;2022-09-09T12:44:30;26.00;47.80
29539;DHT22;16482;51.046;4.498;2022-09-09T12:47:01;25.90;47.80
29539;DHT22;16482;51.046;4.498;2022-09-09T12:49:34;26.00;47.90
29539;DHT22;16482;51.046;4.498;2022-09-09T12:52:13;26.00;47.90
29539;DHT22;16482;51.046;4.498;2022-09-09T12:54:44;26.00;47.90
29539;DHT22;16482;51.046;4.498;2022-09-09T12:57:13;26.00;47.90
29539;DHT22;16482;51.046;4.498;2022-09-09T12:59:42;26.00;47.90
29539;DHT22;16482;51.046;4.498;2022-09-09T13:02:25;26.00;47.90
29539;DHT22;16482;51.046;4.498;2022-09-09T13:04:52;26.00;47.90
29539;DHT22;16482;51.046;4.498;2022-09-09T13:07:20;26.00;47.90
29539;DHT22;16482;51.046;4.498;2022-09-09T13:09:48;26.00;47.90
29539;DHT22;16482;51.046;4.498;2022-09-09T13:12:18;26.00;47.90
29539;DHT22;16482;51.046;4.498;2022-09-09T13:14:46;26.00;47.90
29539;DHT22;16482;51.046;4.498;2022-09-09T13:17:27;26.00;47.90
29539;DHT22;16482;51.046;4.498;2022-09-09T13:19:57;26.00;47.90
29539;DHT22;16482;51.046;4.498;2022-09-09T13:22:36;26.10;48.00
29539;DHT22;16482;51.046;4.498;2022-09-09T13:27:53;26.00;47.90
29539;DHT22;16482;51.046;4.498;2022-09-09T13:30:30;26.00;47.90
29539;DHT22;16482;51.046;4.498;2022-09-09T13:33:24;26.10;47.90
29539;DHT22;16482;51.046;4.498;2022-09-09T13:36:04;26.00;47.90
29539;DHT22;16482;51.046;4.498;2022-09-09T13:38:55;26.00;48.00
29539;DHT22;16482;51.046;4.498;2022-09-09T13:41:24;26.00;47.90
29539;DHT22;16482;51.046;4.498;2022-09-09T13:43:54;26.00;48.00
29539;DHT22;16482;51.046;4.498;2022-09-09T13:46:41;26.00;48.00
29539;DHT22;16482;51.046;4.498;2022-09-09T13:51:38;26.00;48.00
29539;DHT22;16482;51.046;4.498;2022-09-09T13:54:05;26.00;47.90
29539;DHT22;16482;51.046;4.498;2022-09-09T13:56:34;26.00;47.90
29539;DHT22;16482;51.046;4.498;2022-09-09T13:59:02;25.90;47.90
29539;DHT22;16482;51.046;4.498;2022-09-09T14:01:28;26.00;47.90
29539;DHT22;16482;51.046;4.498;2022-09-09T14:03:54;26.00;47.90
29539;DHT22;16482;51.046;4.498;2022-09-09T14:06:24;26.00;47.90
29539;DHT22;16482;51.046;4.498;2022-09-09T14:08:50;26.00;47.90
29539;DHT22;16482;51.046;4.498;2022-09-09T14:11:17;26.00;47.80
29539;DHT22;16482;51.046;4.498;2022-09-09T14:13:43;26.00;47.80
29539;DHT22;16482;51.046;4.498;2022-09-09T14:16:10;26.00;47.90
29539;DHT22;16482;51.046;4.498;2022-09-09T14:18:36;26.00;47.90
29539;DHT22;16482;51.046;4.498;2022-09-09T14:21:04;26.00;47.90
29539;DHT22;16482;51.046;4.498;2022-09-09T14:23:32;26.00;47.80
29539;DHT22;16482;51.046;4.498;2022-09-09T14:26:06;26.00;47.80
29539;DHT22;16482;51.046;4.498;2022-09-09T14:28:35;26.00;47.80
29539;DHT22;16482;51.046;4.498;2022-09-09T14:31:04;26.00;47.80
29539;DHT22;16482;51.046;4.498;2022-09-09T14:33:38;26.10;47.90
29539;DHT22;16482;51.046;4.498;2022-09-09T14:36:06;26.00;47.80
29539;DHT22;16482;51.046;4.498;2022-09-09T14:38:34;26.10;47.70
29539;DHT22;16482;51.046;4.498;2022-09-09T14:41:14;26.10;47.70
29539;DHT22;16482;51.046;4.498;2022-09-09T14:43:42;26.10;47.60
29539;DHT22;16482;51.046;4.498;2022-09-09T14:46:11;26.00;47.60
29539;DHT22;16482;51.046;4.498;2022-09-09T14:48:38;26.10;47.50
29539;DHT22;16482;51.046;4.498;2022-09-09T14:51:11;26.00;47.60
29539;DHT22;16482;51.046;4.498;2022-09-09T14:53:40;26.00;47.80
29539;DHT22;16482;51.046;4.498;2022-09-09T14:56:15;26.00;47.60
29539;DHT22;16482;51.046;4.498;2022-09-09T14:58:42;26.00;47.60
29539;DHT22;16482;51.046;4.498;2022-09-09T15:01:11;26.00;47.70
29539;DHT22;16482;51.046;4.498;2022-09-09T15:03:38;26.00;47.70
29539;DHT22;16482;51.046;4.498;2022-09-09T15:06:07;26.00;47.70
29539;DHT22;16482;51.046;4.498;2022-09-09T15:08:35;26.00;47.70
29539;DHT22;16482;51.046;4.498;2022-09-09T15:11:02;26.00;47.70
29539;DHT22;16482;51.046;4.498;2022-09-09T15:13:37;26.00;47.80
29539;DHT22;16482;51.046;4.498;2022-09-09T15:16:07;26.00;47.90
29539;DHT22;16482;51.046;4.498;2022-09-09T15:18:33;26.00;48.00
29539;DHT22;16482;51.046;4.498;2022-09-09T15:21:03;26.00;48.20
29539;DHT22;16482;51.046;4.498;2022-09-09T15:23:34;26.00;48.20
29539;DHT22;16482;51.046;4.498;2022-09-09T15:26:09;26.00;48.20
29539;DHT22;16482;51.046;4.498;2022-09-09T15:28:37;26.00;48.20
29539;DHT22;16482;51.046;4.498;2022-09-09T15:31:11;25.90;48.10
29539;DHT22;16482;51.046;4.498;2022-09-09T15:33:38;25.90;48.10
29539;DHT22;16482;51.046;4.498;2022-09-09T15:36:18;26.00;48.20
29539;DHT22;16482;51.046;4.498;2022-09-09T15:38:44;25.90;48.20
29539;DHT22;16482;51.046;4.498;2022-09-09T15:41:14;25.90;48.30
29539;DHT22;16482;51.046;4.498;2022-09-09T15:43:44;25.90;48.30
29539;DHT22;16482;51.046;4.498;2022-09-09T15:48:46;25.90;48.40
29539;DHT22;16482;51.046;4.498;2022-09-09T15:51:17;25.90;48.40
29539;DHT22;16482;51.046;4.498;2022-09-09T15:53:46;25.90;48.60
29539;DHT22;16482;51.046;4.498;2022-09-09T15:56:12;25.90;48.70
29539;DHT22;16482;51.046;4.498;2022-09-09T15:58:38;25.90;48.70
29539;DHT22;16482;51.046;4.498;2022-09-09T16:01:08;25.90;48.80
29539;DHT22;16482;51.046;4.498;2022-09-09T16:03:40;25.90;48.80
29539;DHT22;16482;51.046;4.498;2022-09-09T16:06:16;25.90;48.90
29539;DHT22;16482;51.046;4.498;2022-09-09T16:08:44;25.90;49.00
29539;DHT22;16482;51.046;4.498;2022-09-09T16:11:11;25.90;49.20
29539;DHT22;16482;51.046;4.498;2022-09-09T16:13:40;25.90;49.30
29539;DHT22;16482;51.046;4.498;2022-09-09T16:16:07;25.90;49.30
29539;DHT22;16482;51.046;4.498;2022-09-09T16:18:38;25.90;49.50
29539;DHT22;16482;51.046;4.498;2022-09-09T16:21:05;25.90;49.60
29539;DHT22;16482;51.046;4.498;2022-09-09T16:23:32;25.90;50.30
29539;DHT22;16482;51.046;4.498;2022-09-09T16:26:01;25.90;49.80
29539;DHT22;16482;51.046;4.498;2022-09-09T16:28:47;25.80;50.40
29539;DHT22;16482;51.046;4.498;2022-09-09T16:31:17;25.90;49.90
29539;DHT22;16482;51.046;4.498;2022-09-09T16:33:44;25.90;50.20
29539;DHT22;16482;51.046;4.498;2022-09-09T16:36:13;25.90;50.20
29539;DHT22;16482;51.046;4.498;2022-09-09T16:38:39;25.90;50.30
29539;DHT22;16482;51.046;4.498;2022-09-09T16:41:06;25.90;50.30
29539;DHT22;16482;51.046;4.498;2022-09-09T16:43:34;25.90;50.40
29539;DHT22;16482;51.046;4.498;2022-09-09T16:46:14;25.90;50.40
29539;DHT22;16482;51.046;4.498;2022-09-09T16:48:42;25.90;50.40
29539;DHT22;16482;51.046;4.498;2022-09-09T16:51:14;25.90;50.50
29539;DHT22;16482;51.046;4.498;2022-09-09T16:53:40;25.90;50.60
29539;DHT22;16482;51.046;4.498;2022-09-09T16:56:12;25.90;50.50
29539;DHT22;16482;51.046;4.498;2022-09-09T16:58:42;25.90;50.50
29539;DHT22;16482;51.046;4.498;2022-09-09T17:01:09;25.90;50.60
29539;DHT22;16482;51.046;4.498;2022-09-09T17:03:39;25.90;50.70
29539;DHT22;16482;51.046;4.498;2022-09-09T17:06:12;25.90;50.70
29539;DHT22;16482;51.046;4.498;2022-09-09T17:08:41;25.90;50.60
29539;DHT22;16482;51.046;4.498;2022-09-09T17:11:12;25.90;50.70
29539;DHT22;16482;51.046;4.498;2022-09-09T17:13:45;25.90;50.70
29539;DHT22;16482;51.046;4.498;2022-09-09T17:16:13;25.90;50.60
29539;DHT22;16482;51.046;4.498;2022-09-09T17:18:39;25.90;50.60
29539;DHT22;16482;51.046;4.498;2022-09-09T17:21:12;25.80;50.50
29539;DHT22;16482;51.046;4.498;2022-09-09T17:23:41;25.90;50.50
29539;DHT22;16482;51.046;4.498;2022-09-09T17:26:10;25.80;50.30
29539;DHT22;16482;51.046;4.498;2022-09-09T17:28:37;25.90;50.40
29539;DHT22;16482;51.046;4.498;2022-09-09T17:31:07;25.90;50.40
29539;DHT22;16482;51.046;4.498;2022-09-09T17:33:39;25.90;50.30
29539;DHT22;16482;51.046;4.498;2022-09-09T17:36:14;25.80;50.20
29539;DHT22;16482;51.046;4.498;2022-09-09T17:38:41;25.80;50.20